Terminal Aerodrome Forecast
Issued by NWS

Home | Current Version | Previous Version | Text Only | Print | Product List | Glossary On
Versions: 1 2 3 4 5 6 7 8 9 10 11 12 13
657
FTUS44 KLZK 261134
TAFLIT
TAF
KLIT 261134Z 2612/2712 12008KT P6SM SCT020 OVC050 WS020/20040KT
     FM261400 15008G18KT P6SM VCSH SCT020 OVC050 WS020/20040KT
     FM261600 19012G25KT P6SM VCSH SCT025 OVC050
      TEMPO 2616/2620 5SM -TSRA BR OVC015CB
     FM262000 24012G25KT 6SM -RA VCTS SCT015CB OVC040
      TEMPO 2620/2624 VRB25G40KT 1SM TSRA OVC015CB
     FM270000 30012G20KT P6SM -RA OVC015
     FM270400 30008KT P6SM BKN020 OVC050=

USA.gov is the U.S. government's official web portal to all federal, state and local government web resources and services.